Time;durP1;ratioP1;P1;durP2;ratioP2;P2;SDS_P1;SDS_P2;PMS_P1;PMS_P2;Temp;Humidity;BMP_temperature;BMP_pressure;BME280_temperature;BME280_humidity;BME280_pressure;Samples;Min_cycle;Max_cycle;Signal;HPM_P1;HPM_P2
2023/03/17 00:02:01;;;;;;;5.50;3.20;;;;;;;8.25;64.93;100743.41;5058071;28;20104;-77
2023/03/17 00:04:27;;;;;;;5.20;2.80;;;;;;;8.26;64.98;100745.09;5057446;28;20029;-77
2023/03/17 00:06:53;;;;;;;5.45;3.10;;;;;;;8.24;64.92;100746.97;5068113;28;20025;-79
2023/03/17 00:09:21;;;;;;;7.07;3.45;;;;;;;8.20;64.90;100746.34;5070086;28;20016;-77
2023/03/17 00:11:47;;;;;;;6.43;3.55;;;;;;;8.17;64.89;100742.13;5056624;28;20024;-78
2023/03/17 00:14:14;;;;;;;5.80;3.30;;;;;;;8.15;65.21;100749.25;5072215;28;20085;-77
2023/03/17 00:16:50;;;;;;;5.22;3.50;;;;;;;8.10;65.54;100745.25;5071216;28;20435;-76
2023/03/17 00:19:27;;;;;;;9.65;3.72;;;;;;;8.08;65.79;100732.25;5064533;28;20056;-77
2023/03/17 00:21:53;;;;;;;5.95;3.58;;;;;;;8.08;65.60;100721.78;5051913;28;20071;-79
2023/03/17 00:24:19;;;;;;;6.00;3.22;;;;;;;8.08;65.92;100716.53;5053356;28;20082;-77
2023/03/17 00:26:45;;;;;;;10.07;3.90;;;;;;;8.05;65.85;100700.19;5070450;28;20032;-77
2023/03/17 00:29:10;;;;;;;8.30;3.53;;;;;;;8.04;65.95;100696.72;5071521;28;20020;-78
2023/03/17 00:31:38;;;;;;;6.68;3.63;;;;;;;8.04;65.99;100693.25;5071636;28;20056;-78
2023/03/17 00:34:04;;;;;;;7.97;3.90;;;;;;;8.00;66.09;100695.22;5070976;28;20059;-76
2023/03/17 00:36:32;;;;;;;6.20;3.80;;;;;;;7.97;66.00;100708.50;5066168;28;20055;-76
2023/03/17 00:38:58;;;;;;;5.78;3.85;;;;;;;7.93;66.34;100704.41;5072572;28;20096;-76
2023/03/17 00:41:25;;;;;;;7.43;4.00;;;;;;;7.92;66.39;100702.75;5052977;28;20025;-76
2023/03/17 00:43:54;;;;;;;5.90;3.50;;;;;;;7.88;66.73;100706.50;5052811;28;20024;-76
2023/03/17 00:46:26;;;;;;;7.13;4.20;;;;;;;7.89;66.69;100695.09;5073568;28;20025;-76
2023/03/17 00:48:54;;;;;;;6.28;3.88;;;;;;;7.91;66.65;100692.38;5052293;28;20119;-78
2023/03/17 00:51:20;;;;;;;6.25;3.83;;;;;;;7.90;66.81;100702.00;5070223;28;20058;-76
2023/03/17 00:53:46;;;;;;;6.50;3.55;;;;;;;7.89;66.99;100699.47;5060345;28;20025;-78
2023/03/17 00:56:32;;;;;;;6.38;3.80;;;;;;;7.93;66.54;100698.34;5068602;28;20085;-77
2023/03/17 00:58:58;;;;;;;5.85;3.60;;;;;;;7.86;67.02;100696.13;5068350;28;20497;-76
2023/03/17 01:01:24;;;;;;;6.10;3.72;;;;;;;7.84;67.15;100697.16;5068348;28;20656;-77
2023/03/17 01:03:50;;;;;;;5.95;3.67;;;;;;;7.82;67.41;100693.81;5052782;28;20040;-76
2023/03/17 01:06:16;;;;;;;6.82;3.45;;;;;;;7.78;67.40;100694.94;5070042;28;20081;-76
2023/03/17 01:08:43;;;;;;;5.95;3.45;;;;;;;7.78;67.48;100697.56;5069919;28;20020;-76
2023/03/17 01:11:17;;;;;;;5.93;3.38;;;;;;;7.75;67.76;100697.78;5068395;28;20051;-76
2023/03/17 01:13:43;;;;;;;6.55;3.80;;;;;;;7.73;67.61;100700.50;5070582;28;20048;-76
2023/03/17 01:16:10;;;;;;;7.20;3.97;;;;;;;7.69;68.05;100692.94;5052697;28;20029;-76
2023/03/17 01:18:35;;;;;;;7.82;3.60;;;;;;;7.67;68.01;100694.81;5070112;28;20206;-76
2023/03/17 01:21:01;;;;;;;9.00;4.25;;;;;;;7.67;67.84;100689.56;5069229;28;20024;-76
2023/03/17 01:23:27;;;;;;;5.82;3.67;;;;;;;7.61;68.11;100679.50;5069603;28;20032;-76
2023/03/17 01:25:53;;;;;;;6.07;3.67;;;;;;;7.58;68.37;100683.13;5062827;28;20036;-77
2023/03/17 01:28:19;;;;;;;5.30;3.85;;;;;;;7.56;68.28;100674.53;5065988;28;20025;-76
2023/03/17 01:30:45;;;;;;;6.32;3.55;;;;;;;7.52;68.66;100680.91;5051671;28;20354;-76
2023/03/17 01:33:13;;;;;;;7.28;3.70;;;;;;;7.48;68.69;100690.72;5068953;28;20428;-77
2023/03/17 01:35:40;;;;;;;5.47;3.50;;;;;;;7.46;69.03;100682.13;5071074;28;20031;-76
2023/03/17 01:38:07;;;;;;;5.35;3.50;;;;;;;7.45;69.31;100677.84;5070149;28;20029;-76
2023/03/17 01:40:41;;;;;;;5.00;3.15;;;;;;;7.42;69.46;100671.97;5051147;28;20330;-76
2023/03/17 01:43:07;;;;;;;5.18;3.45;;;;;;;7.41;69.29;100667.66;5061124;28;20024;-76
2023/03/17 01:46:10;;;;;;;6.25;3.47;;;;;;;7.39;69.33;100665.16;5067045;28;20077;-76
2023/03/17 01:48:42;;;;;;;;;;;;;;;7.44;68.54;100673.53;5067408;28;20031;-76
2023/03/17 01:51:16;;;;;;;6.75;3.40;;;;;;;7.32;69.81;100668.25;5056719;28;19931;-76
2023/03/17 01:53:46;;;;;;;6.03;3.42;;;;;;;7.27;69.90;100660.69;5050128;28;20035;-76
2023/03/17 01:56:11;;;;;;;6.45;3.60;;;;;;;7.26;69.99;100656.41;5065025;28;20275;-77
2023/03/17 01:58:38;;;;;;;5.40;3.55;;;;;;;7.22;70.02;100662.78;5070766;28;20446;-76
2023/03/17 02:01:06;;;;;;;6.85;3.60;;;;;;;7.20;69.95;100651.53;5068984;28;20047;-76
2023/03/17 02:03:33;;;;;;;5.75;3.78;;;;;;;7.16;69.66;100643.03;5068015;28;20147;-77
2023/03/17 02:06:00;;;;;;;6.93;4.05;;;;;;;7.17;70.71;100649.09;5065718;28;20036;-77
2023/03/17 02:08:26;;;;;;;7.80;3.50;;;;;;;7.18;70.48;100642.94;5064698;28;20024;-77
2023/03/17 02:10:52;;;;;;;5.70;3.30;;;;;;;7.17;70.11;100639.47;5068941;28;20039;-77
2023/03/17 02:13:18;;;;;;;5.63;3.72;;;;;;;7.16;70.35;100631.72;5052263;28;20021;-77
2023/03/17 02:15:47;;;;;;;10.02;4.45;;;;;;;7.16;70.13;100635.19;5068677;28;20024;-77
2023/03/17 02:18:13;;;;;;;6.43;3.55;;;;;;;7.18;70.11;100635.94;5069211;28;20051;-77
2023/03/17 02:20:39;;;;;;;7.13;3.80;;;;;;;7.17;70.22;100633.41;5051687;28;20033;-77
2023/03/17 02:23:06;;;;;;;6.70;3.83;;;;;;;7.19;69.84;100636.78;5055632;28;20028;-78
2023/03/17 02:25:35;;;;;;;6.55;3.85;;;;;;;7.21;70.44;100625.31;5048668;28;20025;-77
2023/03/17 02:28:13;;;;;;;7.78;4.05;;;;;;;7.23;70.09;100628.66;5063395;28;20381;-76
2023/03/17 02:30:39;;;;;;;8.48;4.22;;;;;;;7.24;69.83;100624.25;5068488;28;20111;-76
2023/03/17 02:33:05;;;;;;;6.72;3.75;;;;;;;7.24;69.74;100616.41;5068989;28;20178;-76
2023/03/17 02:35:30;;;;;;;8.38;3.80;;;;;;;7.26;69.58;100619.78;5067783;28;20821;-76
2023/03/17 02:37:56;;;;;;;7.28;4.10;;;;;;;7.28;69.48;100620.50;5066752;28;20028;-76
2023/03/17 02:40:23;;;;;;;7.75;3.97;;;;;;;7.28;69.75;100619.66;5069557;28;20032;-76
2023/03/17 02:42:49;;;;;;;7.78;3.97;;;;;;;7.30;69.38;100608.16;5068325;28;20106;-76
2023/03/17 02:45:14;;;;;;;8.05;4.07;;;;;;;7.32;69.07;100610.69;5069123;28;20048;-76
2023/03/17 02:47:41;;;;;;;8.45;4.03;;;;;;;7.30;69.32;100605.56;5051555;28;20388;-76
2023/03/17 02:50:08;;;;;;;8.55;4.00;;;;;;;7.28;69.50;100599.56;5068051;28;20024;-76
2023/03/17 02:52:33;;;;;;;7.32;3.83;;;;;;;7.29;69.36;100605.66;5068383;28;20028;-77
2023/03/17 02:54:59;;;;;;;7.20;3.60;;;;;;;7.29;69.37;100603.88;5052013;28;20059;-77
2023/03/17 02:57:24;;;;;;;7.68;3.78;;;;;;;7.27;69.17;100605.75;5065797;28;20512;-77
2023/03/17 02:59:50;;;;;;;7.25;3.90;;;;;;;7.27;69.29;100599.69;5072844;28;20028;-77
2023/03/17 03:02:15;;;;;;;6.88;4.00;;;;;;;7.26;69.26;100606.69;5069027;28;20016;-77
2023/03/17 03:04:42;;;;;;;7.40;3.90;;;;;;;7.26;69.07;100609.31;5070022;28;20067;-76
2023/03/17 03:07:08;;;;;;;8.35;3.85;;;;;;;7.26;69.53;100617.16;5066553;28;20620;-77
2023/03/17 03:09:34;;;;;;;6.47;3.72;;;;;;;7.27;68.72;100612.75;5065982;28;20028;-77
2023/03/17 03:11:59;;;;;;;9.82;4.30;;;;;;;7.25;68.94;100610.25;5049318;28;20033;-77
2023/03/17 03:14:25;;;;;;;5.85;3.38;;;;;;;7.26;69.01;100604.06;5035762;28;20024;-77
2023/03/17 03:16:51;;;;;;;7.78;3.92;;;;;;;7.27;69.14;100604.91;5048837;28;20020;-77
2023/03/17 03:19:17;;;;;;;9.23;3.70;;;;;;;7.28;69.04;100606.59;5062663;28;20033;-77
2023/03/17 03:21:43;;;;;;;7.15;3.80;;;;;;;7.28;68.96;100609.19;5067542;28;20078;-77
2023/03/17 03:24:09;;;;;;;6.70;3.72;;;;;;;7.27;69.08;100618.00;5068167;28;20404;-77
2023/03/17 03:26:35;;;;;;;5.95;3.55;;;;;;;7.27;69.15;100616.22;5049241;28;20078;-76
2023/03/17 03:29:01;;;;;;;9.00;3.88;;;;;;;7.26;69.04;100611.09;5048647;28;20028;-76
2023/03/17 03:31:27;;;;;;;7.15;4.10;;;;;;;7.27;69.00;100613.59;5051459;28;20029;-76
2023/03/17 03:33:52;;;;;;;9.48;3.60;;;;;;;7.27;68.77;100610.97;5070472;28;20074;-74
2023/03/17 03:36:18;;;;;;;6.18;3.67;;;;;;;7.25;68.65;100610.25;5049161;28;20028;-75
2023/03/17 03:38:44;;;;;;;7.20;3.55;;;;;;;7.25;69.17;100619.88;5068374;28;20381;-76
2023/03/17 03:41:10;;;;;;;6.85;3.65;;;;;;;7.24;68.93;100624.25;5067694;28;20024;-77
2023/03/17 03:43:35;;;;;;;8.10;3.63;;;;;;;7.23;69.15;100612.97;5069951;28;20032;-76
2023/03/17 03:46:03;;;;;;;8.55;3.80;;;;;;;7.21;69.23;100621.84;5062423;28;20534;-77
2023/03/17 03:48:29;;;;;;;7.95;3.45;;;;;;;7.22;69.09;100631.38;5065206;28;20029;-76
2023/03/17 03:50:56;;;;;;;11.13;3.83;;;;;;;7.20;68.76;100628.84;5072138;28;20449;-76
2023/03/17 03:53:22;;;;;;;6.53;3.17;;;;;;;7.23;69.03;100618.19;5072490;28;20431;-76
2023/03/17 03:55:48;;;;;;;6.88;3.63;;;;;;;7.24;68.75;100626.88;5037600;28;20048;-76
2023/03/17 03:58:13;;;;;;;5.10;3.05;;;;;;;7.23;68.78;100633.88;5052137;28;20458;-78
2023/03/17 04:00:38;;;;;;;7.75;3.05;;;;;;;7.23;68.52;100638.28;5051955;28;20112;-77
2023/03/17 04:03:04;;;;;;;5.88;2.78;;;;;;;7.23;68.37;100643.53;5054904;28;20025;-77
2023/03/17 04:05:29;;;;;;;6.30;3.20;;;;;;;7.22;68.88;100642.69;5052673;28;20029;-77
2023/03/17 04:07:55;;;;;;;7.03;3.30;;;;;;;7.24;68.38;100645.19;5035226;28;20028;-77
2023/03/17 04:10:22;;;;;;;6.82;3.15;;;;;;;7.21;68.83;100634.94;5053171;28;20055;-77
2023/03/17 04:12:47;;;;;;;5.65;2.95;;;;;;;7.21;68.71;100640.16;5053645;28;20059;-76
2023/03/17 04:15:15;;;;;;;7.05;3.58;;;;;;;7.22;68.47;100640.06;5052399;28;20056;-76
2023/03/17 04:17:40;;;;;;;6.20;2.90;;;;;;;7.22;68.59;100637.44;5053200;28;20073;-76
2023/03/17 04:20:06;;;;;;;7.25;3.10;;;;;;;7.23;68.25;100633.06;5033853;28;20113;-76
2023/03/17 04:22:31;;;;;;;8.65;3.15;;;;;;;7.22;68.57;100634.81;5052621;28;20108;-77
2023/03/17 04:24:56;;;;;;;8.48;3.35;;;;;;;7.22;68.40;100637.44;5053757;28;20021;-78
2023/03/17 04:27:22;;;;;;;7.60;2.90;;;;;;;7.20;68.80;100647.16;5049448;28;20029;-77
2023/03/17 04:29:48;;;;;;;10.93;3.22;;;;;;;7.18;68.78;100641.16;5051249;28;20457;-77
2023/03/17 04:32:14;;;;;;;8.52;3.08;;;;;;;7.19;68.45;100642.84;5051940;28;20557;-75
2023/03/17 04:34:40;;;;;;;6.22;3.13;;;;;;;7.19;69.20;100642.00;5051692;28;20104;-76
2023/03/17 04:37:06;;;;;;;9.60;2.88;;;;;;;7.15;69.50;100637.91;5043672;28;20543;-77
2023/03/17 04:39:33;;;;;;;7.70;3.38;;;;;;;7.14;68.87;100650.16;5054380;28;20033;-76
2023/03/17 04:41:58;;;;;;;5.65;2.95;;;;;;;7.13;69.01;100642.41;5050741;28;20018;-76
2023/03/17 04:44:24;;;;;;;6.97;3.05;;;;;;;7.13;69.03;100639.78;5048745;28;20025;-76
2023/03/17 04:46:49;;;;;;;5.70;2.90;;;;;;;7.14;69.11;100644.06;5049685;28;20466;-78
2023/03/17 04:49:15;;;;;;;8.73;3.33;;;;;;;7.13;68.84;100645.00;5048316;28;20021;-78
2023/03/17 04:51:41;;;;;;;7.30;3.50;;;;;;;7.12;68.88;100638.09;5050289;28;20025;-77
2023/03/17 04:54:07;;;;;;;8.27;3.53;;;;;;;7.13;69.01;100631.94;5037126;28;20079;-77
2023/03/17 04:56:33;;;;;;;8.65;3.35;;;;;;;7.14;68.98;100631.00;5052770;28;20024;-76
2023/03/17 04:58:59;;;;;;;8.43;3.33;;;;;;;7.14;69.00;100638.84;5070411;28;20033;-77
2023/03/17 05:01:25;;;;;;;11.20;3.50;;;;;;;7.14;69.10;100644.06;5052690;28;20017;-77
2023/03/17 05:03:55;;;;;;;10.00;3.70;;;;;;;7.16;69.21;100636.97;5069226;28;20043;-77
2023/03/17 05:06:20;;;;;;;9.50;3.72;;;;;;;7.13;69.14;100616.22;5051702;28;20425;-76
2023/03/17 05:08:46;;;;;;;10.27;3.85;;;;;;;7.15;69.03;100622.19;5062740;28;20039;-76
2023/03/17 05:11:12;;;;;;;8.57;3.75;;;;;;;7.12;69.54;100615.38;5063696;28;20033;-76
2023/03/17 05:13:39;;;;;;;11.52;3.95;;;;;;;7.13;69.57;100611.00;5052255;28;20029;-78
2023/03/17 05:16:06;;;;;;;10.55;3.83;;;;;;;7.12;69.34;100609.31;5056653;28;20029;-76
2023/03/17 05:18:32;;;;;;;12.82;4.60;;;;;;;7.10;69.72;100621.66;5052612;28;20024;-76
2023/03/17 05:20:58;;;;;;;12.23;4.60;;;;;;;7.12;69.90;100622.41;5070121;28;20033;-76
2023/03/17 05:23:24;;;;;;;10.77;3.97;;;;;;;7.10;69.65;100622.50;5071827;28;20035;-76
2023/03/17 05:25:50;;;;;;;14.25;4.60;;;;;;;7.06;69.95;100626.25;5070574;28;20146;-77
2023/03/17 05:28:17;;;;;;;12.00;4.50;;;;;;;7.02;70.45;100632.59;5049977;28;20112;-76
2023/03/17 05:30:43;;;;;;;13.75;4.47;;;;;;;7.05;70.22;100636.81;5065396;28;20108;-78
2023/03/17 05:33:09;;;;;;;15.65;4.57;;;;;;;7.02;70.84;100639.63;5052261;28;20095;-76
2023/03/17 05:35:34;;;;;;;11.77;4.40;;;;;;;7.03;70.57;100638.69;5069848;28;20512;-76
2023/03/17 05:37:59;;;;;;;11.35;4.05;;;;;;;7.02;70.53;100637.00;5067950;28;20109;-74
2023/03/17 05:40:25;;;;;;;12.80;4.88;;;;;;;7.00;70.36;100636.25;5068393;28;20077;-78
2023/03/17 05:42:50;;;;;;;15.23;4.13;;;;;;;7.01;70.71;100633.53;5051070;28;20027;-78
2023/03/17 05:45:17;;;;;;;10.13;4.22;;;;;;;7.00;70.35;100631.88;5065823;28;20036;-77
2023/03/17 05:47:43;;;;;;;8.40;3.75;;;;;;;7.00;71.01;100629.25;5053496;28;20029;-78
2023/03/17 05:50:10;;;;;;;13.25;4.25;;;;;;;6.99;70.80;100624.97;5055271;28;20081;-78
2023/03/17 05:52:36;;;;;;;14.15;4.32;;;;;;;6.97;70.87;100626.00;5062778;28;20028;-77
2023/03/17 05:55:03;;;;;;;11.73;4.03;;;;;;;6.99;71.11;100632.81;5068372;28;20512;-77
2023/03/17 05:57:29;;;;;;;14.27;4.30;;;;;;;6.97;70.92;100634.69;5067845;28;20111;-76
2023/03/17 06:00:05;;;;;;;11.75;3.50;;;;;;;6.97;71.25;100633.84;5067284;28;20482;-77
2023/03/17 06:02:30;;;;;;;11.10;3.97;;;;;;;6.98;70.98;100627.66;5067212;28;20040;-77
2023/03/17 06:04:56;;;;;;;10.75;3.95;;;;;;;6.96;71.24;100622.53;5068376;28;20062;-76
2023/03/17 06:07:21;;;;;;;13.98;4.28;;;;;;;6.96;71.21;100624.31;5068493;28;20052;-78
2023/03/17 06:09:47;;;;;;;12.35;3.88;;;;;;;6.96;71.50;100622.53;5068477;28;20024;-77
2023/03/17 06:12:12;;;;;;;8.93;4.30;;;;;;;6.95;71.57;100623.47;5068475;28;20032;-78
2023/03/17 06:14:38;;;;;;;11.70;4.00;;;;;;;6.96;71.76;100629.53;5068310;28;20024;-77
2023/03/17 06:17:04;;;;;;;12.02;3.90;;;;;;;6.98;71.55;100633.75;5069241;28;20061;-77
2023/03/17 06:19:29;;;;;;;11.90;4.25;;;;;;;7.00;71.61;100629.25;5050974;28;20032;-76
2023/03/17 06:21:55;;;;;;;10.98;3.95;;;;;;;7.02;71.48;100627.38;5068951;28;20017;-78
2023/03/17 06:24:20;;;;;;;11.68;3.88;;;;;;;7.07;71.63;100632.31;5069374;28;20407;-78
2023/03/17 06:26:45;;;;;;;14.60;4.35;;;;;;;7.09;71.65;100640.91;5051470;28;20052;-76
2023/03/17 06:29:18;;;;;;;10.98;3.70;;;;;;;7.11;71.31;100634.63;5066897;28;20133;-77
2023/03/17 06:31:49;;;;;;;;;;;;;;;7.20;71.11;100638.44;5067618;28;20493;-77
2023/03/17 06:34:18;;;;;;;12.05;4.28;;;;;;;7.21;71.27;100642.78;5066261;28;19912;-77
2023/03/17 06:36:44;;;;;;;8.90;3.38;;;;;;;7.25;71.07;100643.41;5068051;28;20020;-76
2023/03/17 06:39:11;;;;;;;14.73;3.75;;;;;;;7.26;71.04;100645.94;5067693;28;20040;-76
2023/03/17 06:41:38;;;;;;;11.10;4.35;;;;;;;7.32;70.69;100637.69;5067225;28;20041;-77
2023/03/17 06:44:07;;;;;;;13.85;4.05;;;;;;;7.33;70.83;100634.13;5068212;28;20032;-77
2023/03/17 06:46:33;;;;;;;11.50;3.88;;;;;;;7.40;70.71;100631.97;5062093;28;20024;-77
2023/03/17 06:49:00;;;;;;;16.40;4.13;;;;;;;7.45;70.47;100633.34;5045257;28;20527;-77
2023/03/17 06:51:26;;;;;;;15.63;4.00;;;;;;;7.48;70.81;100630.53;5057691;28;20029;-77
2023/03/17 06:53:53;;;;;;;14.48;3.80;;;;;;;7.56;70.61;100635.25;5068058;28;20047;-77
2023/03/17 06:56:20;;;;;;;13.20;3.88;;;;;;;7.60;70.59;100641.97;5047851;28;20072;-77
2023/03/17 06:58:45;;;;;;;10.02;3.70;;;;;;;7.64;70.32;100640.03;5048912;28;20025;-77
2023/03/17 07:01:11;;;;;;;15.38;4.00;;;;;;;7.71;70.21;100636.91;5050574;28;20882;-77
2023/03/17 07:03:36;;;;;;;15.45;4.10;;;;;;;7.75;70.21;100632.28;5047903;28;20075;-77
2023/03/17 07:06:02;;;;;;;13.80;4.03;;;;;;;7.83;70.17;100638.69;5048877;28;20104;-76
2023/03/17 07:08:29;;;;;;;11.75;3.78;;;;;;;7.90;69.42;100635.69;5048440;28;20028;-78
2023/03/17 07:10:56;;;;;;;13.95;4.10;;;;;;;7.98;69.71;100641.25;5047951;28;20552;-76
2023/03/17 07:13:22;;;;;;;9.90;3.70;;;;;;;8.05;69.23;100638.13;5048191;28;20017;-76
2023/03/17 07:15:49;;;;;;;9.57;3.70;;;;;;;8.10;69.28;100643.91;5047311;28;20040;-77
2023/03/17 07:18:16;;;;;;;9.15;4.30;;;;;;;8.19;68.67;100637.19;5046630;28;20043;-78
2023/03/17 07:20:42;;;;;;;8.80;3.90;;;;;;;8.23;68.52;100640.44;5048861;28;20028;-76
2023/03/17 07:23:20;;;;;;;14.23;4.00;;;;;;;8.33;68.91;100641.50;5048335;28;20048;-77
2023/03/17 07:25:46;;;;;;;9.45;3.72;;;;;;;8.42;68.06;100630.44;5047481;28;20103;-77
2023/03/17 07:28:13;;;;;;;8.93;3.38;;;;;;;8.52;67.81;100635.88;5048215;28;20662;-76
2023/03/17 07:30:39;;;;;;;9.65;3.83;;;;;;;8.60;67.86;100634.41;5047267;28;20032;-77
2023/03/17 07:33:06;;;;;;;10.88;3.95;;;;;;;8.68;67.55;100632.09;5051007;28;20104;-77
2023/03/17 07:35:32;;;;;;;11.73;3.72;;;;;;;8.75;67.32;100617.59;5053304;28;20028;-77
2023/03/17 07:37:58;;;;;;;11.00;3.42;;;;;;;8.83;66.58;100617.09;5058890;28;20028;-76
2023/03/17 07:40:23;;;;;;;10.85;3.80;;;;;;;8.87;67.16;100618.53;5051492;28;20082;-77
2023/03/17 07:42:48;;;;;;;10.98;3.90;;;;;;;8.92;66.52;100610.34;5052324;28;20032;-75
2023/03/17 07:45:14;;;;;;;11.93;4.00;;;;;;;8.99;66.30;100622.06;5046917;28;20425;-79
2023/03/17 07:47:40;;;;;;;9.07;3.95;;;;;;;9.02;65.71;100624.47;5047754;28;20041;-75
2023/03/17 07:50:06;;;;;;;8.48;3.42;;;;;;;9.10;66.25;100630.00;5047193;28;20035;-76
2023/03/17 07:52:33;;;;;;;9.40;3.35;;;;;;;9.17;66.16;100633.03;5043794;28;20025;-76
2023/03/17 07:54:59;;;;;;;8.40;3.35;;;;;;;9.26;65.62;100622.75;5046167;28;20168;-77
2023/03/17 07:57:24;;;;;;;9.93;3.67;;;;;;;9.34;65.12;100628.28;5048836;28;20115;-78
2023/03/17 07:59:50;;;;;;;9.75;3.90;;;;;;;9.40;65.13;100645.38;5047293;28;20035;-77
2023/03/17 08:02:17;;;;;;;8.55;3.38;;;;;;;9.49;65.59;100643.84;5057772;28;20044;-77
2023/03/17 08:04:44;;;;;;;9.07;3.60;;;;;;;9.56;65.06;100639.81;5047828;28;20029;-77
2023/03/17 08:07:11;;;;;;;7.15;3.30;;;;;;;9.59;64.57;100637.81;5043299;28;20046;-76
2023/03/17 08:09:37;;;;;;;10.57;3.58;;;;;;;9.69;64.27;100628.31;5065131;28;20028;-77
2023/03/17 08:12:03;;;;;;;8.15;3.72;;;;;;;9.73;64.46;100618.44;5047921;28;20539;-76
2023/03/17 08:14:29;;;;;;;9.20;3.65;;;;;;;9.82;64.76;100630.88;5059814;28;20114;-76
2023/03/17 08:16:55;;;;;;;8.68;3.40;;;;;;;9.90;63.60;100633.75;5037963;28;20079;-76
2023/03/17 08:19:23;;;;;;;9.85;3.50;;;;;;;10.01;63.92;100630.34;5046448;28;20487;-77
2023/03/17 08:21:49;;;;;;;6.30;3.38;;;;;;;10.03;63.47;100628.44;5054086;28;20032;-77
2023/03/17 08:24:15;;;;;;;6.18;2.90;;;;;;;10.17;63.41;100640.53;5052692;28;20013;-77
2023/03/17 08:26:41;;;;;;;8.57;3.40;;;;;;;10.32;62.81;100634.16;5047255;28;20029;-77
2023/03/17 08:29:06;;;;;;;10.38;3.03;;;;;;;10.44;63.17;100633.22;5049672;28;20025;-77
2023/03/17 08:31:32;;;;;;;7.22;3.10;;;;;;;10.54;62.39;100623.66;5050513;28;20098;-79
2023/03/17 08:33:58;;;;;;;7.13;3.17;;;;;;;10.59;62.06;100621.50;5050470;28;20025;-77
2023/03/17 08:36:24;;;;;;;5.25;3.15;;;;;;;10.69;61.83;100611.09;5050762;28;20036;-78
2023/03/17 08:38:51;;;;;;;6.10;3.40;;;;;;;10.73;61.32;100611.69;5049718;28;20066;-77
2023/03/17 08:41:19;;;;;;;5.78;3.20;;;;;;;10.81;61.38;100606.69;5045970;28;20048;-77
2023/03/17 08:43:46;;;;;;;6.20;3.13;;;;;;;10.86;61.32;100591.38;5036238;28;20017;-77
2023/03/17 08:46:16;;;;;;;5.35;2.92;;;;;;;10.92;61.09;100606.69;5050986;28;20029;-77
2023/03/17 08:48:43;;;;;;;4.80;3.22;;;;;;;11.02;61.69;100612.88;5049399;28;20153;-77
2023/03/17 08:51:09;;;;;;;6.35;2.88;;;;;;;11.18;61.26;100623.00;5035932;28;20067;-77
2023/03/17 08:53:36;;;;;;;6.45;2.95;;;;;;;11.35;60.33;100619.03;5050160;28;20076;-77
2023/03/17 08:56:03;;;;;;;7.35;2.88;;;;;;;11.45;60.02;100619.97;5067335;28;20055;-77
2023/03/17 08:58:29;;;;;;;5.95;3.13;;;;;;;11.56;60.09;100617.28;5072367;28;20024;-77
2023/03/17 09:00:59;;;;;;;8.43;3.10;;;;;;;11.67;59.95;100612.00;5069548;28;20055;-77
2023/03/17 09:03:25;;;;;;;5.47;3.10;;;;;;;11.77;59.52;100605.00;5055584;28;20016;-77
2023/03/17 09:05:50;;;;;;;6.43;3.50;;;;;;;11.87;58.76;100605.09;5073323;28;20034;-76
2023/03/17 09:08:16;;;;;;;10.00;3.17;;;;;;;11.97;59.06;100599.88;5079964;28;20082;-78
2023/03/17 09:10:42;;;;;;;5.03;3.05;;;;;;;11.96;59.36;100612.22;5085377;28;20032;-79
2023/03/17 09:13:08;;;;;;;7.45;2.95;;;;;;;12.02;58.70;100608.25;5075227;28;20048;-76
2023/03/17 09:15:33;;;;;;;7.53;3.28;;;;;;;12.06;59.39;100604.41;5061765;28;20496;-77
2023/03/17 09:18:00;;;;;;;5.90;2.92;;;;;;;12.05;59.23;100600.09;5069845;28;20032;-77
2023/03/17 09:20:26;;;;;;;5.15;3.00;;;;;;;12.09;58.69;100601.50;5070615;28;20514;-76
2023/03/17 09:22:55;;;;;;;4.50;2.90;;;;;;;12.15;59.29;100603.63;5070268;28;20042;-76
2023/03/17 09:25:20;;;;;;;7.57;3.17;;;;;;;12.24;59.01;100613.38;5075399;28;20059;-76
2023/03/17 09:27:46;;;;;;;7.40;3.03;;;;;;;12.46;59.15;100613.25;5063740;28;20234;-76
2023/03/17 09:30:15;;;;;;;5.63;2.97;;;;;;;12.63;58.22;100618.88;5072627;28;20044;-77
2023/03/17 09:32:41;;;;;;;5.53;2.70;;;;;;;12.71;58.41;100605.84;5068142;28;20730;-77
2023/03/17 09:35:07;;;;;;;8.52;2.80;;;;;;;12.77;57.89;100597.38;5072533;28;20028;-77
2023/03/17 09:37:33;;;;;;;10.05;3.35;;;;;;;12.85;57.83;100587.00;5080450;28;20138;-77
2023/03/17 09:39:59;;;;;;;7.88;3.17;;;;;;;12.86;56.74;100594.78;5061463;28;20370;-77
2023/03/17 09:42:26;;;;;;;5.35;3.10;;;;;;;12.88;57.89;100597.31;5080431;28;20027;-78
2023/03/17 09:45:24;;;;;;;5.07;2.97;;;;;;;12.86;58.02;100599.25;5080773;28;20032;-78
2023/03/17 09:48:08;;;;;;;6.93;3.00;;;;;;;12.86;57.52;100600.06;5070367;28;20040;-76
2023/03/17 09:50:45;;;;;;;6.68;2.75;;;;;;;12.87;58.00;100611.47;5084786;28;20055;-78
2023/03/17 09:53:17;;;;;;;6.43;3.20;;;;;;;12.94;57.92;100604.69;5085116;28;20430;-76
2023/03/17 09:55:43;;;;;;;4.50;2.88;;;;;;;13.04;58.45;100618.75;5082158;28;20055;-76
2023/03/17 09:58:10;;;;;;;8.02;2.92;;;;;;;13.02;58.48;100611.94;5067955;28;20032;-76
2023/03/17 10:00:35;;;;;;;6.15;2.80;;;;;;;12.94;57.83;100620.53;5082714;28;20047;-76
2023/03/17 10:03:01;;;;;;;5.07;2.70;;;;;;;12.96;57.58;100620.41;5089767;28;20608;-77
2023/03/17 10:05:29;;;;;;;6.15;2.90;;;;;;;12.94;58.30;100632.91;5080642;28;20024;-76
2023/03/17 10:08:01;;;;;;;6.70;2.92;;;;;;;12.95;58.44;100624.84;5079081;28;20028;-77
2023/03/17 10:10:47;;;;;;;4.93;2.90;;;;;;;12.97;59.26;100612.34;5076033;28;20028;-76
2023/03/17 10:13:50;;;;;;;6.30;3.35;;;;;;;13.02;59.47;100623.31;5072386;28;20028;-77
2023/03/17 10:16:26;;;;;;;4.75;3.08;;;;;;;13.03;59.14;100654.06;5062467;28;20036;-76
2023/03/17 10:19:04;;;;;;;5.22;2.70;;;;;;;13.04;59.70;100654.88;5054235;28;20114;-76
2023/03/17 10:21:37;;;;;;;6.55;3.05;;;;;;;13.07;59.19;100644.88;5085552;28;20747;-77
2023/03/17 10:24:04;;;;;;;7.28;2.75;;;;;;;13.30;58.98;100650.00;5079000;28;20020;-77
2023/03/17 10:26:40;;;;;;;6.50;2.95;;;;;;;13.51;59.21;100663.09;5067181;28;20043;-77
2023/03/17 10:29:21;;;;;;;7.03;3.20;;;;;;;13.67;60.32;100658.97;5068751;28;20404;-77
2023/03/17 10:31:47;;;;;;;5.97;2.90;;;;;;;13.87;59.98;100656.31;5041300;28;20032;-79
2023/03/17 10:34:20;;;;;;;5.15;2.40;;;;;;;14.01;60.07;100650.63;5078459;28;20035;-77
2023/03/17 10:36:50;;;;;;;7.43;3.10;;;;;;;13.97;59.27;100652.69;5083167;28;20086;-77
2023/03/17 10:39:22;;;;;;;5.32;2.80;;;;;;;14.20;60.59;100642.66;5074672;28;20473;-76
2023/03/17 10:41:52;;;;;;;8.40;3.00;;;;;;;14.46;57.65;100628.84;5058409;28;20024;-77
2023/03/17 10:44:34;;;;;;;7.10;2.80;;;;;;;15.14;58.23;100639.97;5064613;28;20480;-76
2023/03/17 10:47:00;;;;;;;5.97;2.42;;;;;;;15.62;55.16;100640.56;5070887;28;20031;-76
2023/03/17 10:49:34;;;;;;;5.95;2.42;;;;;;;15.97;54.48;100633.53;5076293;28;20104;-77
2023/03/17 10:51:59;;;;;;;3.92;2.50;;;;;;;16.23;54.39;100629.13;5063859;28;20067;-76
2023/03/17 10:54:25;;;;;;;5.15;2.50;;;;;;;16.36;54.51;100627.84;5074364;28;20064;-76
2023/03/17 10:57:05;;;;;;;5.07;2.95;;;;;;;16.51;53.05;100631.63;5072399;28;20060;-76
2023/03/17 10:59:36;;;;;;;7.45;3.40;;;;;;;16.51;52.73;100631.63;5065340;28;20034;-77
2023/03/17 11:02:27;;;;;;;4.25;2.78;;;;;;;16.45;53.84;100618.97;5070440;28;20050;-76
2023/03/17 11:05:08;;;;;;;9.77;2.72;;;;;;;16.60;54.14;100620.06;5051766;28;20048;-77
2023/03/17 11:07:39;;;;;;;8.85;3.10;;;;;;;16.63;51.79;100617.06;5058891;28;20023;-77
2023/03/17 11:10:19;;;;;;;5.38;2.78;;;;;;;16.66;52.52;100623.94;5088392;28;20020;-78
2023/03/17 11:12:49;;;;;;;8.38;3.00;;;;;;;16.95;52.12;100612.94;5086174;28;20477;-76
2023/03/17 11:15:16;;;;;;;5.57;3.20;;;;;;;17.14;50.82;100610.00;5084906;28;20373;-75
2023/03/17 11:17:46;;;;;;;7.00;2.90;;;;;;;17.15;49.92;100604.53;5053177;28;20035;-77
2023/03/17 11:20:18;;;;;;;6.75;3.15;;;;;;;17.28;51.44;100604.09;5073745;28;20860;-77
2023/03/17 11:23:22;;;;;;;6.70;3.40;;;;;;;17.57;51.37;100597.47;5088736;28;20024;-76
2023/03/17 11:26:00;;;;;;;6.07;3.75;;;;;;;17.57;49.91;100594.78;5071247;28;20031;-76
2023/03/17 11:28:31;;;;;;;5.90;3.38;;;;;;;17.48;50.40;100594.78;5087010;28;20016;-75
2023/03/17 11:31:22;;;;;;;4.20;3.20;;;;;;;17.81;51.17;100595.69;5051203;28;20550;-77
2023/03/17 11:34:05;;;;;;;5.65;3.20;;;;;;;17.83;49.90;100599.00;5073002;28;20533;-77